Time;durP1;ratioP1;P1;durP2;ratioP2;P2;SDS_P1;SDS_P2;PMS_P1;PMS_P2;Temp;Humidity;BMP_temperature;BMP_pressure;BME280_temperature;BME280_humidity;BME280_pressure;Samples;Min_cycle;Max_cycle;Signal;HPM_P1;HPM_P2
2021/09/27 00:01:15;;;;;;;18.50;16.42;;;14.70;99.90;;;;;;5093406;28;20069;-63
2021/09/27 00:03:42;;;;;;;20.33;16.65;;;14.70;99.90;;;;;;5093939;28;20032;-63
2021/09/27 00:06:09;;;;;;;21.77;17.02;;;14.70;99.90;;;;;;5092954;28;20032;-64
2021/09/27 00:08:35;;;;;;;18.15;16.17;;;14.70;99.90;;;;;;5092110;28;20394;-64
2021/09/27 00:11:23;;;;;;;18.55;16.52;;;14.70;99.90;;;;;;5092142;28;20059;-64
2021/09/27 00:13:52;;;;;;;20.10;16.88;;;14.70;99.90;;;;;;5092706;28;20157;-63
2021/09/27 00:16:18;;;;;;;21.02;16.88;;;14.60;99.90;;;;;;5093332;28;20055;-64
2021/09/27 00:18:44;;;;;;;21.25;18.27;;;14.60;99.90;;;;;;5092802;28;20034;-64
2021/09/27 00:21:16;;;;;;;19.77;16.95;;;14.60;99.90;;;;;;5092577;28;20111;-64
2021/09/27 00:23:42;;;;;;;22.90;18.05;;;14.60;99.90;;;;;;5093036;28;20107;-63
2021/09/27 00:26:08;;;;;;;21.58;18.23;;;14.60;99.90;;;;;;5092276;28;20055;-63
2021/09/27 00:28:34;;;;;;;21.10;18.80;;;14.50;99.90;;;;;;5092809;28;20063;-64
2021/09/27 00:31:00;;;;;;;24.05;19.27;;;14.50;99.90;;;;;;5091636;28;20550;-63
2021/09/27 00:33:27;;;;;;;23.67;19.42;;;14.50;99.90;;;;;;5092998;28;20159;-63
2021/09/27 00:35:53;;;;;;;25.63;20.23;;;14.50;99.90;;;;;;5091486;28;20032;-64
2021/09/27 00:38:19;;;;;;;25.02;20.27;;;14.40;99.90;;;;;;5092810;28;20028;-63
2021/09/27 00:40:50;;;;;;;26.88;20.90;;;14.50;99.90;;;;;;5092284;28;20482;-63
2021/09/27 00:43:16;;;;;;;;;;;14.40;99.90;;;;;;5093321;28;20122;-63
2021/09/27 00:45:46;;;;;;;25.42;20.27;;;14.40;99.90;;;;;;5092767;28;19958;-63
2021/09/27 00:48:12;;;;;;;22.58;19.35;;;14.40;99.90;;;;;;5091778;28;20042;-63
2021/09/27 00:50:42;;;;;;;21.73;18.73;;;14.30;99.90;;;;;;5092533;28;20036;-63
2021/09/27 00:53:20;;;;;;;22.50;18.95;;;14.30;99.90;;;;;;5092116;28;20205;-63
2021/09/27 00:55:55;;;;;;;27.08;21.35;;;14.30;99.90;;;;;;5092408;28;20077;-63
2021/09/27 00:58:22;;;;;;;23.63;19.60;;;14.30;99.90;;;;;;5092333;28;20426;-63
2021/09/27 01:00:49;;;;;;;23.02;19.05;;;14.20;99.90;;;;;;5092240;28;20065;-63
2021/09/27 01:03:15;;;;;;;24.67;20.23;;;14.20;99.90;;;;;;5092863;28;20024;-63
2021/09/27 01:05:49;;;;;;;30.33;23.58;;;14.20;99.90;;;;;;5091994;28;20496;-65
2021/09/27 01:08:42;;;;;;;30.05;21.92;;;14.10;99.90;;;;;;5092252;28;20032;-63
2021/09/27 01:11:34;;;;;;;29.10;23.08;;;14.20;99.90;;;;;;5090935;28;20035;-63
2021/09/27 01:14:07;;;;;;;29.30;21.15;;;14.10;99.90;;;;;;5091303;28;20032;-63
2021/09/27 01:16:51;;;;;;;28.27;22.05;;;14.10;99.90;;;;;;5074092;28;20031;-63
2021/09/27 01:19:59;;;;;;;26.88;21.83;;;14.10;99.90;;;;;;5071983;28;20025;-63
2021/09/27 01:22:43;;;;;;;26.60;20.42;;;14.10;99.90;;;;;;5077943;28;20040;-63
2021/09/27 01:25:21;;;;;;;29.70;21.63;;;14.10;99.90;;;;;;5091129;28;20032;-63
2021/09/27 01:28:01;;;;;;;30.25;22.60;;;14.10;99.90;;;;;;5091676;28;20028;-63
2021/09/27 01:30:32;;;;;;;31.15;24.25;;;14.10;99.90;;;;;;5091499;28;20035;-63
2021/09/27 01:33:09;;;;;;;30.63;23.38;;;14.10;99.90;;;;;;5091195;28;20107;-63
2021/09/27 01:35:57;;;;;;;32.85;23.70;;;14.20;99.90;;;;;;5091265;28;20420;-63
2021/09/27 01:38:32;;;;;;;29.75;23.15;;;14.20;99.90;;;;;;5091627;28;20112;-63
2021/09/27 01:41:14;;;;;;;30.60;22.80;;;14.30;99.90;;;;;;5090242;28;20376;-63
2021/09/27 01:44:11;;;;;;;26.33;21.17;;;14.30;99.90;;;;;;5091942;28;20143;-63
2021/09/27 01:46:55;;;;;;;25.08;19.63;;;14.40;99.90;;;;;;5073426;28;20035;-63
2021/09/27 01:49:47;;;;;;;22.67;19.00;;;14.60;99.90;;;;;;5092008;28;20031;-63
2021/09/27 01:52:42;;;;;;;23.65;19.17;;;14.60;99.90;;;;;;5090738;28;20020;-63
2021/09/27 01:55:16;;;;;;;22.75;17.85;;;14.70;99.90;;;;;;5050630;28;20185;-63
2021/09/27 01:57:53;;;;;;;22.00;16.73;;;14.80;99.90;;;;;;5091337;28;20135;-63
2021/09/27 02:00:24;;;;;;;19.95;16.90;;;14.80;99.90;;;;;;5091522;28;20024;-63
2021/09/27 02:03:27;;;;;;;21.52;17.33;;;14.90;99.90;;;;;;5090825;28;20024;-63
2021/09/27 02:05:55;;;;;;;19.73;17.45;;;14.90;99.90;;;;;;4988420;28;20113;-63
2021/09/27 02:08:29;;;;;;;20.10;16.77;;;15.00;99.90;;;;;;5071908;28;20059;-63
2021/09/27 02:11:01;;;;;;;20.75;16.48;;;15.00;99.90;;;;;;5090190;28;20039;-63
2021/09/27 02:13:50;;;;;;;19.38;15.88;;;15.00;99.90;;;;;;5091123;28;20039;-63
2021/09/27 02:16:44;;;;;;;21.15;17.42;;;15.00;99.90;;;;;;5090302;28;20039;-63
2021/09/27 02:19:19;;;;;;;21.80;17.80;;;15.10;99.90;;;;;;5088071;28;20035;-63
2021/09/27 02:21:52;;;;;;;17.65;15.85;;;15.10;99.90;;;;;;5091097;28;20020;-63
2021/09/27 02:24:30;;;;;;;25.88;18.52;;;15.00;99.90;;;;;;5091375;28;20062;-63
2021/09/27 02:26:57;;;;;;;22.92;18.92;;;15.00;99.90;;;;;;5090349;28;20119;-63
2021/09/27 02:29:23;;;;;;;21.00;17.55;;;15.00;99.90;;;;;;5091449;28;20028;-63
2021/09/27 02:32:01;;;;;;;21.13;18.10;;;14.90;99.90;;;;;;5091024;28;20035;-63
2021/09/27 02:34:36;;;;;;;20.65;17.02;;;14.90;99.90;;;;;;5091619;28;20035;-63
2021/09/27 02:37:47;;;;;;;23.73;19.75;;;14.80;99.90;;;;;;5089870;28;20036;-64
2021/09/27 02:40:20;;;;;;;21.40;17.75;;;14.80;99.90;;;;;;5070611;28;20032;-63
2021/09/27 02:42:56;;;;;;;23.88;18.67;;;14.80;99.90;;;;;;5085037;28;20044;-63
2021/09/27 02:45:23;;;;;;;21.58;18.05;;;14.80;99.90;;;;;;5091014;28;20028;-63
2021/09/27 02:48:29;;;;;;;23.48;18.30;;;14.80;99.90;;;;;;5090596;28;20040;-63
2021/09/27 02:50:55;;;;;;;21.40;17.95;;;14.70;99.90;;;;;;5088519;28;20409;-63
2021/09/27 02:53:21;;;;;;;19.80;16.52;;;14.70;99.90;;;;;;5094271;28;20051;-63
2021/09/27 02:56:24;;;;;;;21.55;17.98;;;14.80;99.90;;;;;;5095015;28;20448;-63
2021/09/27 02:58:59;;;;;;;20.30;17.27;;;14.70;99.90;;;;;;5076387;28;20047;-63
2021/09/27 03:01:35;;;;;;;22.40;17.90;;;14.80;99.90;;;;;;5094610;28;20032;-63
2021/09/27 03:04:11;;;;;;;22.42;17.55;;;14.70;99.90;;;;;;5090557;28;20024;-63
2021/09/27 03:07:02;;;;;;;19.27;16.58;;;14.80;99.90;;;;;;5094334;28;20034;-62
2021/09/27 03:09:55;;;;;;;19.67;16.65;;;14.70;99.90;;;;;;5094367;28;20107;-63
2021/09/27 03:12:44;;;;;;;23.00;18.10;;;14.80;99.90;;;;;;5094540;28;20024;-63
2021/09/27 03:15:40;;;;;;;21.92;18.83;;;14.80;99.90;;;;;;5044220;28;20489;-63
2021/09/27 03:18:14;;;;;;;22.55;17.55;;;14.90;99.90;;;;;;5092959;28;20035;-63
2021/09/27 03:21:04;;;;;;;20.05;17.48;;;14.90;99.90;;;;;;5094910;28;20489;-63
2021/09/27 03:24:02;;;;;;;20.25;16.67;;;14.90;99.90;;;;;;5093538;28;20090;-63
2021/09/27 03:27:01;;;;;;;20.20;17.55;;;14.90;99.90;;;;;;5094323;28;20083;-63
2021/09/27 03:29:45;;;;;;;19.67;16.90;;;14.90;99.90;;;;;;5078800;28;20047;-63
2021/09/27 03:32:32;;;;;;;17.70;15.10;;;14.90;99.90;;;;;;5093188;28;20591;-62
2021/09/27 03:35:08;;;;;;;21.52;16.73;;;14.90;99.90;;;;;;5093082;28;20381;-63
2021/09/27 03:37:46;;;;;;;19.63;17.35;;;15.00;99.90;;;;;;5080598;28;20036;-62
2021/09/27 03:40:49;;;;;;;21.60;16.02;;;15.00;99.90;;;;;;5073297;28;20624;-63
2021/09/27 03:43:29;;;;;;;17.85;15.95;;;15.00;99.90;;;;;;5088135;28;20040;-63
2021/09/27 03:46:14;;;;;;;18.60;15.32;;;15.00;99.90;;;;;;5093107;28;20056;-62
2021/09/27 03:49:00;;;;;;;18.63;15.00;;;15.10;99.90;;;;;;5093624;28;20044;-63
2021/09/27 03:51:34;;;;;;;19.27;14.95;;;15.10;99.90;;;;;;5092696;28;20100;-62
2021/09/27 03:54:06;;;;;;;17.30;14.13;;;15.10;99.90;;;;;;5092717;28;20044;-62
2021/09/27 03:56:41;;;;;;;15.43;13.32;;;15.20;99.90;;;;;;5093965;28;20047;-63
2021/09/27 03:59:39;;;;;;;16.30;14.60;;;15.20;99.90;;;;;;5092782;28;20032;-62
2021/09/27 04:02:14;;;;;;;16.65;13.98;;;15.20;99.90;;;;;;5092761;28;20062;-63
2021/09/27 04:05:15;;;;;;;15.75;13.80;;;15.20;99.90;;;;;;5093352;28;20038;-63
2021/09/27 04:07:41;;;;;;;15.18;13.63;;;15.20;99.90;;;;;;5092668;28;20047;-63
2021/09/27 04:10:16;;;;;;;16.08;14.38;;;15.20;99.90;;;;;;5092721;28;20036;-63
2021/09/27 04:13:19;;;;;;;17.30;14.15;;;15.30;99.90;;;;;;5083563;28;20102;-62
2021/09/27 04:16:06;;;;;;;18.95;13.85;;;15.30;99.90;;;;;;5092773;28;20024;-63
2021/09/27 04:18:54;;;;;;;16.70;13.68;;;15.30;99.90;;;;;;5092944;28;20034;-63
2021/09/27 04:21:30;;;;;;;21.27;14.82;;;15.30;99.90;;;;;;5093154;28;20039;-62
2021/09/27 04:24:10;;;;;;;16.50;14.60;;;15.30;99.90;;;;;;5092440;28;20117;-62
2021/09/27 04:26:53;;;;;;;15.95;14.00;;;15.30;99.90;;;;;;5092993;28;20042;-63
2021/09/27 04:30:07;;;;;;;15.57;13.65;;;15.30;99.90;;;;;;5091018;28;20077;-63
2021/09/27 04:33:10;;;;;;;15.63;13.30;;;15.30;99.90;;;;;;5010548;28;20524;-63
2021/09/27 04:36:08;;;;;;;15.98;13.98;;;15.20;99.90;;;;;;5079614;28;20107;-62
2021/09/27 04:38:36;;;;;;;15.05;13.20;;;15.20;99.90;;;;;;5051820;28;20048;-63
2021/09/27 04:41:24;;;;;;;18.63;14.15;;;15.20;99.90;;;;;;5091823;28;20047;-62
2021/09/27 04:43:53;;;;;;;17.05;13.77;;;15.10;99.90;;;;;;5090261;28;20043;-63
2021/09/27 04:46:28;;;;;;;16.08;14.15;;;15.00;99.90;;;;;;5091811;28;20538;-63
2021/09/27 04:49:42;;;;;;;16.30;13.88;;;15.00;99.90;;;;;;5092373;28;20036;-63
2021/09/27 04:52:24;;;;;;;16.67;14.90;;;14.90;99.90;;;;;;5001665;28;20054;-62
2021/09/27 04:55:21;;;;;;;17.40;15.20;;;14.80;99.90;;;;;;5091647;28;20038;-63
2021/09/27 04:58:02;;;;;;;18.63;15.20;;;14.70;99.90;;;;;;5026767;28;20066;-63
2021/09/27 05:00:37;;;;;;;18.00;15.30;;;14.60;99.90;;;;;;5092617;28;20039;-62
2021/09/27 05:03:26;;;;;;;18.42;16.13;;;14.50;99.90;;;;;;5091479;28;20032;-63
2021/09/27 05:06:13;;;;;;;21.00;15.50;;;14.40;99.90;;;;;;5092312;28;20032;-63
2021/09/27 05:09:11;;;;;;;22.05;17.42;;;14.40;99.90;;;;;;5092019;28;20036;-63
2021/09/27 05:12:09;;;;;;;22.33;17.20;;;14.40;99.90;;;;;;5071378;28;20044;-63
2021/09/27 05:14:56;;;;;;;22.73;17.13;;;14.30;99.90;;;;;;5090440;28;20107;-63
2021/09/27 05:17:41;;;;;;;23.23;17.00;;;14.30;99.90;;;;;;5091113;28;20106;-62
2021/09/27 05:20:16;;;;;;;19.23;15.80;;;14.30;99.90;;;;;;5057586;28;20461;-63
2021/09/27 05:22:49;;;;;;;19.13;16.55;;;14.20;99.90;;;;;;5090564;28;20505;-64
2021/09/27 05:25:48;;;;;;;18.85;16.85;;;14.20;99.90;;;;;;5089373;28;20489;-63
2021/09/27 05:28:44;;;;;;;20.38;16.38;;;14.20;99.90;;;;;;5086661;28;20089;-64
2021/09/27 05:31:48;;;;;;;23.60;16.92;;;14.10;99.90;;;;;;5087630;28;20032;-65
2021/09/27 05:34:33;;;;;;;19.05;16.15;;;14.10;99.90;;;;;;5083800;28;20055;-65
2021/09/27 05:37:11;;;;;;;20.75;17.33;;;14.00;99.90;;;;;;5088980;28;20028;-65
2021/09/27 05:40:00;;;;;;;18.92;15.57;;;14.00;99.90;;;;;;5089216;28;20487;-63
2021/09/27 05:43:00;;;;;;;20.10;16.83;;;13.90;99.90;;;;;;5089699;28;20170;-68
2021/09/27 05:45:34;;;;;;;22.15;17.08;;;13.90;99.90;;;;;;5089304;28;20077;-64
2021/09/27 05:48:06;;;;;;;19.73;16.42;;;13.80;99.90;;;;;;5089630;28;20072;-63
2021/09/27 05:50:46;;;;;;;27.70;19.42;;;13.80;99.90;;;;;;5091126;28;20023;-63
2021/09/27 05:53:23;;;;;;;22.80;18.77;;;13.80;99.90;;;;;;5089286;28;20020;-62
2021/09/27 05:56:10;;;;;;;23.60;18.00;;;13.80;99.90;;;;;;5088982;28;20029;-63
2021/09/27 05:58:49;;;;;;;23.38;17.88;;;13.80;99.90;;;;;;5091407;28;20080;-63
2021/09/27 06:01:34;;;;;;;22.65;18.33;;;13.90;99.90;;;;;;5090539;28;20024;-63
2021/09/27 06:04:36;;;;;;;24.33;17.92;;;14.00;99.90;;;;;;5090889;28;20032;-63
2021/09/27 06:07:07;;;;;;;22.35;17.17;;;14.10;99.90;;;;;;5090548;28;20043;-63
2021/09/27 06:09:45;;;;;;;21.90;17.35;;;14.20;99.90;;;;;;5091085;28;20477;-65
2021/09/27 06:12:10;;;;;;;19.77;16.60;;;14.20;99.90;;;;;;5086129;28;20044;-64
2021/09/27 06:14:37;;;;;;;19.50;15.88;;;14.30;99.90;;;;;;5070992;28;20029;-66
2021/09/27 06:17:29;;;;;;;18.88;15.93;;;14.40;99.90;;;;;;5071048;28;20362;-65
2021/09/27 06:20:11;;;;;;;19.42;15.77;;;14.40;99.90;;;;;;5071527;28;20105;-66
2021/09/27 06:23:02;;;;;;;20.25;16.35;;;14.60;99.90;;;;;;5071784;28;20029;-66
2021/09/27 06:25:47;;;;;;;;;;;14.70;99.90;;;;;;5072100;28;20040;-66
2021/09/27 06:29:03;;;;;;;21.40;14.88;;;14.80;99.90;;;;;;5074799;28;20002;-66
2021/09/27 06:31:32;;;;;;;21.67;16.13;;;14.90;99.90;;;;;;5019837;28;20394;-66
2021/09/27 06:34:20;;;;;;;20.05;15.93;;;15.10;99.90;;;;;;5075242;28;20366;-64
2021/09/27 06:36:47;;;;;;;19.13;15.45;;;15.10;99.90;;;;;;5074677;28;20127;-66
2021/09/27 06:39:17;;;;;;;18.83;16.20;;;15.30;99.90;;;;;;5074200;28;20054;-65
2021/09/27 06:41:47;;;;;;;17.42;15.05;;;15.30;99.90;;;;;;5074680;28;20086;-66
2021/09/27 06:44:13;;;;;;;;;;;15.40;99.90;;;;;;5094302;28;20028;-65
2021/09/27 06:46:39;;;;;;;18.40;15.20;;;15.40;99.90;;;;;;5095560;28;19904;-66
2021/09/27 06:49:06;;;;;;;17.48;14.55;;;15.50;99.90;;;;;;5094954;28;20020;-66
2021/09/27 06:51:32;;;;;;;18.08;15.10;;;15.60;99.90;;;;;;5094963;28;20020;-65
2021/09/27 06:53:57;;;;;;;17.00;14.48;;;15.70;99.90;;;;;;5095467;28;20381;-66
2021/09/27 06:56:23;;;;;;;19.63;16.20;;;15.80;99.90;;;;;;5095196;28;20394;-66
2021/09/27 06:58:49;;;;;;;18.90;15.27;;;15.80;99.90;;;;;;5095217;28;20028;-66
2021/09/27 07:01:14;;;;;;;18.52;15.77;;;15.90;99.90;;;;;;5094331;28;20472;-66
2021/09/27 07:03:40;;;;;;;16.88;14.40;;;15.90;99.90;;;;;;5095008;28;20378;-66
2021/09/27 07:06:06;;;;;;;21.33;16.02;;;16.00;99.90;;;;;;5094420;28;20073;-66
2021/09/27 07:08:31;;;;;;;18.23;15.77;;;16.10;99.90;;;;;;5094507;28;20032;-66
2021/09/27 07:10:57;;;;;;;17.33;14.68;;;16.10;99.90;;;;;;5094965;28;20024;-66
2021/09/27 07:13:23;;;;;;;17.92;14.93;;;16.20;99.90;;;;;;5092478;28;20028;-66
2021/09/27 07:15:49;;;;;;;17.73;14.48;;;16.30;99.90;;;;;;5094434;28;20024;-66
2021/09/27 07:18:15;;;;;;;18.35;14.40;;;16.40;99.90;;;;;;5094010;28;20468;-65
2021/09/27 07:20:41;;;;;;;16.90;14.25;;;16.50;99.90;;;;;;5094585;28;20043;-66
2021/09/27 07:23:06;;;;;;;18.05;14.30;;;16.50;99.90;;;;;;5094134;28;20489;-66
2021/09/27 07:25:34;;;;;;;14.80;13.20;;;16.60;99.90;;;;;;5094551;28;20020;-65
2021/09/27 07:28:00;;;;;;;18.42;14.35;;;16.70;99.90;;;;;;5093726;28;20040;-65
2021/09/27 07:30:26;;;;;;;15.20;12.88;;;16.70;99.90;;;;;;5094380;28;20093;-66
2021/09/27 07:32:53;;;;;;;14.85;13.02;;;16.80;99.90;;;;;;5094280;28;20055;-66
2021/09/27 07:35:23;;;;;;;14.63;12.63;;;16.90;99.90;;;;;;5093538;28;20116;-66
2021/09/27 07:37:49;;;;;;;16.67;13.57;;;17.00;99.90;;;;;;5092756;28;20030;-66
2021/09/27 07:40:18;;;;;;;23.50;14.20;;;17.20;99.90;;;;;;5093820;28;20043;-66
2021/09/27 07:42:45;;;;;;;17.13;12.73;;;17.30;99.90;;;;;;5093553;28;20056;-66
2021/09/27 07:45:14;;;;;;;14.27;12.02;;;17.40;99.90;;;;;;5086464;28;20040;-65
2021/09/27 07:47:40;;;;;;;13.73;11.88;;;17.50;99.90;;;;;;5088261;28;20392;-65
2021/09/27 07:50:08;;;;;;;12.10;10.80;;;17.60;99.90;;;;;;5082133;28;20029;-65
2021/09/27 07:52:34;;;;;;;12.02;10.82;;;17.70;99.90;;;;;;5085610;28;20028;-67
2021/09/27 07:55:00;;;;;;;12.07;10.55;;;17.90;99.90;;;;;;5093525;28;20107;-66
2021/09/27 07:57:25;;;;;;;10.05;8.43;;;18.00;99.90;;;;;;5092857;28;20043;-66
2021/09/27 07:59:53;;;;;;;11.15;9.02;;;18.10;99.90;;;;;;5092614;28;20036;-66
2021/09/27 08:02:22;;;;;;;14.98;8.45;;;18.30;99.90;;;;;;5092547;28;20023;-66
2021/09/27 08:04:48;;;;;;;11.38;8.30;;;18.40;99.90;;;;;;5092490;28;20051;-65
2021/09/27 08:07:15;;;;;;;9.65;7.95;;;18.60;99.90;;;;;;5071620;28;20068;-65
2021/09/27 08:09:41;;;;;;;9.48;7.70;;;18.70;99.90;;;;;;5081029;28;20027;-66
2021/09/27 08:12:07;;;;;;;8.45;7.50;;;18.80;99.90;;;;;;5091351;28;20431;-65
2021/09/27 08:14:33;;;;;;;7.28;6.57;;;19.00;99.90;;;;;;5092639;28;20078;-66
2021/09/27 08:16:58;;;;;;;8.30;6.88;;;19.10;99.90;;;;;;5091404;28;20036;-69
2021/09/27 08:19:25;;;;;;;6.90;6.20;;;19.20;99.90;;;;;;5091454;28;20031;-66
2021/09/27 08:21:54;;;;;;;10.15;6.20;;;19.30;99.90;;;;;;5093132;28;20362;-66
2021/09/27 08:24:20;;;;;;;8.30;7.30;;;19.40;99.90;;;;;;5091195;28;20226;-66
2021/09/27 08:26:46;;;;;;;6.93;6.10;;;19.40;99.90;;;;;;5092564;28;20137;-66
2021/09/27 08:29:12;;;;;;;5.93;4.82;;;19.50;99.90;;;;;;5092104;28;20082;-66
2021/09/27 08:31:40;;;;;;;6.70;4.97;;;19.60;99.90;;;;;;5093088;28;20369;-66
2021/09/27 08:34:07;;;;;;;7.70;5.13;;;19.70;99.90;;;;;;5091590;28;20449;-64
2021/09/27 08:36:33;;;;;;;6.72;4.75;;;19.80;99.90;;;;;;5074607;28;20063;-65
2021/09/27 08:39:00;;;;;;;5.63;4.40;;;19.90;99.90;;;;;;5080491;28;20534;-66
2021/09/27 08:41:56;;;;;;;5.00;4.50;;;19.90;99.90;;;;;;5075799;28;20047;-66
2021/09/27 08:44:46;;;;;;;6.90;5.10;;;20.00;99.90;;;;;;5091269;28;20478;-66
2021/09/27 08:47:23;;;;;;;4.05;3.63;;;20.20;99.90;;;;;;5091723;28;20441;-65
2021/09/27 08:49:51;;;;;;;4.63;4.13;;;20.20;99.90;;;;;;5072490;28;20024;-66
2021/09/27 08:52:19;;;;;;;4.63;3.80;;;20.30;99.90;;;;;;5090721;28;20063;-66
2021/09/27 08:54:47;;;;;;;4.50;4.10;;;20.40;99.90;;;;;;5092544;28;20020;-65
2021/09/27 08:57:32;;;;;;;5.45;4.32;;;20.40;99.90;;;;;;5091478;28;20039;-66
2021/09/27 09:00:14;;;;;;;5.03;3.97;;;20.50;99.90;;;;;;5092154;28;20508;-66
2021/09/27 09:02:56;;;;;;;5.93;3.95;;;20.50;99.90;;;;;;5091944;28;20026;-66
2021/09/27 09:05:39;;;;;;;4.55;4.13;;;20.50;99.90;;;;;;5091344;28;20028;-66
2021/09/27 09:08:42;;;;;;;4.47;4.03;;;20.50;99.90;;;;;;5091470;28;20027;-65
2021/09/27 09:11:29;;;;;;;4.32;3.92;;;20.60;99.90;;;;;;5083415;28;20029;-65
2021/09/27 09:14:06;;;;;;;6.45;4.07;;;20.70;99.90;;;;;;5088573;28;20039;-66
2021/09/27 09:16:34;;;;;;;6.90;4.13;;;20.90;99.90;;;;;;5090992;28;20024;-66
2021/09/27 09:19:04;;;;;;;7.40;4.47;;;21.00;99.70;;;;;;5092205;28;20035;-66
2021/09/27 09:21:49;;;;;;;4.75;4.30;;;21.20;98.80;;;;;;5091365;28;20052;-65
2021/09/27 09:24:19;;;;;;;4.25;3.85;;;21.30;98.80;;;;;;5090830;28;20523;-65
2021/09/27 09:26:48;;;;;;;5.10;3.75;;;21.30;98.10;;;;;;5091959;28;20024;-65
2021/09/27 09:29:20;;;;;;;4.72;3.88;;;21.40;97.90;;;;;;5091225;28;20101;-65
2021/09/27 09:32:12;;;;;;;7.10;4.03;;;21.60;97.60;;;;;;5091817;28;20392;-65
2021/09/27 09:34:38;;;;;;;6.50;3.20;;;21.70;97.00;;;;;;5091273;28;20424;-65
2021/09/27 09:37:14;;;;;;;5.40;3.60;;;21.70;96.50;;;;;;5092169;28;20028;-66
2021/09/27 09:39:53;;;;;;;3.83;3.28;;;21.80;95.60;;;;;;5071500;28;20036;-66
2021/09/27 09:42:19;;;;;;;5.80;3.53;;;21.90;95.20;;;;;;5073977;28;20484;-66
2021/09/27 09:44:50;;;;;;;4.95;3.60;;;21.90;95.00;;;;;;5091931;28;20084;-66
2021/09/27 09:47:19;;;;;;;9.15;3.35;;;22.00;94.40;;;;;;5091019;28;20040;-66
2021/09/27 09:49:58;;;;;;;11.32;3.78;;;22.00;94.60;;;;;;5090886;28;20088;-67
2021/09/27 09:52:34;;;;;;;5.18;3.78;;;22.20;94.60;;;;;;5090894;28;20031;-66
2021/09/27 09:55:01;;;;;;;10.57;3.05;;;22.30;94.00;;;;;;5091624;28;20024;-66
2021/09/27 09:57:34;;;;;;;3.42;3.13;;;22.50;93.30;;;;;;5090527;28;20695;-66
2021/09/27 10:00:11;;;;;;;3.00;2.72;;;22.60;92.90;;;;;;5091370;28;20032;-67
2021/09/27 10:02:39;;;;;;;3.72;3.30;;;22.70;92.50;;;;;;5091134;28;20381;-67
2021/09/27 10:05:10;;;;;;;6.20;2.97;;;22.90;92.10;;;;;;5091755;28;20401;-67
2021/09/27 10:07:49;;;;;;;6.38;3.42;;;22.80;92.20;;;;;;5091112;28;20038;-67
2021/09/27 10:10:42;;;;;;;8.30;3.53;;;22.90;92.10;;;;;;5090643;28;20533;-67
2021/09/27 10:13:35;;;;;;;9.55;3.97;;;22.90;91.70;;;;;;5087426;28;20319;-65
2021/09/27 10:16:12;;;;;;;3.83;3.42;;;22.80;91.30;;;;;;5091234;28;20020;-67
2021/09/27 10:18:41;;;;;;;6.80;3.45;;;22.60;92.00;;;;;;5090886;28;20358;-67
2021/09/27 10:21:18;;;;;;;5.40;2.95;;;22.60;92.20;;;;;;5091376;28;20089;-66
2021/09/27 10:23:47;;;;;;;4.38;3.20;;;22.50;92.10;;;;;;5091471;28;20020;-66
2021/09/27 10:26:27;;;;;;;3.70;3.40;;;22.40;92.30;;;;;;5090391;28;20039;-66
2021/09/27 10:28:58;;;;;;;2.83;2.60;;;22.40;92.10;;;;;;5090866;28;20037;-67
2021/09/27 10:31:27;;;;;;;3.95;3.03;;;22.50;91.30;;;;;;5090530;28;20034;-67
2021/09/27 10:34:01;;;;;;;3.20;2.90;;;22.40;90.80;;;;;;5091160;28;20028;-66
2021/09/27 10:36:38;;;;;;;3.65;3.20;;;22.40;90.00;;;;;;5090464;28;20119;-66
2021/09/27 10:39:07;;;;;;;3.00;2.70;;;22.30;90.50;;;;;;5089009;28;20105;-66
2021/09/27 10:41:59;;;;;;;3.80;2.80;;;22.20;90.20;;;;;;5088197;28;20155;-66
2021/09/27 10:44:29;;;;;;;2.55;2.42;;;22.20;90.30;;;;;;5090112;28;20035;-66
2021/09/27 10:47:03;;;;;;;4.38;3.47;;;22.10;90.50;;;;;;5090832;28;20035;-66
2021/09/27 10:49:35;;;;;;;3.17;2.88;;;22.10;90.80;;;;;;5089753;28;20036;-66
2021/09/27 10:52:21;;;;;;;3.50;3.20;;;22.00;90.80;;;;;;5070998;28;20052;-67
2021/09/27 10:55:16;;;;;;;5.18;3.25;;;22.00;91.20;;;;;;5070820;28;20032;-66
2021/09/27 10:58:06;;;;;;;3.28;2.97;;;22.10;91.20;;;;;;5070945;28;20115;-66
2021/09/27 11:00:37;;;;;;;3.03;2.70;;;22.10;91.00;;;;;;5089064;28;20555;-65
2021/09/27 11:03:31;;;;;;;3.03;2.80;;;22.10;90.50;;;;;;5090739;28;20477;-65
2021/09/27 11:06:18;;;;;;;4.90;2.72;;;22.10;90.40;;;;;;5087223;28;20036;-65
2021/09/27 11:08:59;;;;;;;3.85;2.88;;;22.00;90.40;;;;;;5090062;28;20115;-65
2021/09/27 11:11:30;;;;;;;4.63;3.15;;;22.00;89.30;;;;;;5089685;28;20068;-66
2021/09/27 11:13:58;;;;;;;2.97;2.60;;;22.10;89.40;;;;;;5093380;28;20111;-66
2021/09/27 11:16:34;;;;;;;4.25;2.30;;;22.20;88.90;;;;;;5093497;28;20538;-66
2021/09/27 11:19:08;;;;;;;3.22;2.45;;;22.50;87.90;;;;;;5094000;28;20030;-65
2021/09/27 11:21:42;;;;;;;2.80;2.50;;;22.80;86.50;;;;;;5093366;28;20164;-66
2021/09/27 11:24:13;;;;;;;3.60;2.55;;;23.10;84.40;;;;;;5094177;28;20465;-66
2021/09/27 11:26:45;;;;;;;2.30;2.20;;;23.30;83.20;;;;;;5087099;28;20024;-67
2021/09/27 11:29:17;;;;;;;2.60;2.40;;;23.50;83.00;;;;;;5080151;28;20094;-65
2021/09/27 11:31:43;;;;;;;4.63;2.10;;;23.80;93.40;;;;;;5093980;28;20539;-66
2021/09/27 11:34:09;;;;;;;4.65;2.45;;;23.90;92.00;;;;;;5093675;28;20217;-66
2021/09/27 11:36:46;;;;;;;3.42;2.28;;;24.10;76.50;;;;;;5093288;28;20512;-66
2021/09/27 11:39:15;;;;;;;6.32;2.13;;;24.50;74.50;;;;;;5092864;28;20073;-65
2021/09/27 11:42:02;;;;;;;4.40;1.63;;;24.80;82.90;;;;;;5093281;28;20040;-66
2021/09/27 11:44:31;;;;;;;8.10;2.20;;;25.10;84.30;;;;;;5092534;28;20289;-66
2021/09/27 11:47:15;;;;;;;4.38;1.73;;;25.30;84.80;;;;;;5093307;28;20034;-66
2021/09/27 11:50:16;;;;;;;4.93;2.03;;;25.30;87.60;;;;;;5093272;28;20085;-66
2021/09/27 11:53:01;;;;;;;2.28;1.95;;;25.00;86.10;;;;;;5093758;28;20428;-66
2021/09/27 11:55:44;;;;;;;2.78;1.92;;;24.80;78.20;;;;;;5092132;28;20469;-66
2021/09/27 11:58:29;;;;;;;1.75;1.65;;;24.90;71.90;;;;;;5093588;28;20028;-66
2021/09/27 12:01:36;;;;;;;2.88;1.88;;;24.90;71.40;;;;;;5083828;28;20082;-66
2021/09/27 12:04:31;;;;;;;3.00;1.77;;;24.90;71.30;;;;;;5070708;28;20028;-66
2021/09/27 12:07:04;;;;;;;4.10;2.10;;;24.90;70.60;;;;;;5056534;28;20043;-65
2021/09/27 12:09:45;;;;;;;2.22;1.95;;;25.00;70.40;;;;;;5092493;28;20206;-66
2021/09/27 12:12:27;;;;;;;1.90;1.80;;;25.30;94.30;;;;;;5092760;28;20032;-66
2021/09/27 12:14:54;;;;;;;3.20;2.10;;;25.40;85.60;;;;;;5093070;28;20032;-66
2021/09/27 12:17:23;;;;;;;2.53;2.05;;;25.40;90.30;;;;;;5091979;28;20038;-65
2021/09/27 12:19:55;;;;;;;2.03;1.80;;;25.50;88.60;;;;;;5092670;28;20020;-66
2021/09/27 12:22:30;;;;;;;2.22;2.00;;;25.50;88.60;;;;;;5092385;28;20028;-66
2021/09/27 12:25:00;;;;;;;2.10;1.88;;;25.60;88.40;;;;;;5072280;28;20028;-66
2021/09/27 12:27:28;;;;;;;1.70;1.60;;;25.70;87.60;;;;;;5078875;28;20036;-65
2021/09/27 12:30:12;;;;;;;2.70;1.90;;;25.80;87.10;;;;;;5092800;28;20032;-66
2021/09/27 12:32:42;;;;;;;2.78;2.00;;;26.00;85.90;;;;;;5092425;28;20028;-66
2021/09/27 12:35:16;;;;;;;2.33;2.13;;;26.10;85.30;;;;;;5092640;28;20111;-66
2021/09/27 12:37:43;;;;;;;2.35;2.00;;;26.00;85.30;;;;;;5092622;28;20032;-66
2021/09/27 12:40:14;;;;;;;1.90;1.80;;;26.00;85.60;;;;;;5092512;28;20032;-66
2021/09/27 12:42:54;;;;;;;3.25;2.08;;;26.00;86.50;;;;;;5091769;28;20048;-65
2021/09/27 12:45:28;;;;;;;2.00;1.70;;;26.00;88.10;;;;;;5091202;28;20107;-66
2021/09/27 12:47:56;;;;;;;24.00;2.50;;;26.00;87.40;;;;;;5092480;28;20492;-67
2021/09/27 12:50:26;;;;;;;2.35;1.90;;;26.00;86.80;;;;;;5091169;28;20454;-66
2021/09/27 12:52:58;;;;;;;1.90;1.80;;;25.80;87.50;;;;;;5092460;28;20381;-67
2021/09/27 12:55:38;;;;;;;2.08;1.88;;;25.70;87.40;;;;;;5090993;28;20046;-68
2021/09/27 12:58:10;;;;;;;4.25;1.88;;;25.70;86.60;;;;;;5092334;28;20546;-67
2021/09/27 13:00:42;;;;;;;4.28;2.03;;;25.70;79.70;;;;;;5090613;28;20087;-66
2021/09/27 13:03:11;;;;;;;2.25;1.98;;;25.70;76.50;;;;;;5092081;28;20122;-66
2021/09/27 13:06:12;;;;;;;3.10;1.63;;;25.60;75.30;;;;;;5091148;28;20038;-66
2021/09/27 13:09:02;;;;;;;3.25;1.85;;;25.40;75.00;;;;;;5004404;28;20046;-66
2021/09/27 13:11:40;;;;;;;;;;;25.40;74.50;;;;;;5090845;28;20423;-66
2021/09/27 13:14:21;;;;;;;2.85;1.85;;;25.30;74.10;;;;;;5073858;28;20238;-67
2021/09/27 13:16:50;;;;;;;3.17;1.88;;;25.30;74.80;;;;;;5091699;28;20032;-67
2021/09/27 13:19:48;;;;;;;2.00;1.70;;;25.20;74.80;;;;;;5091503;28;20461;-65
2021/09/27 13:22:39;;;;;;;3.90;2.28;;;25.10;73.90;;;;;;5091679;28;20056;-66
2021/09/27 13:25:12;;;;;;;3.55;2.03;;;25.00;74.30;;;;;;5071904;28;20021;-67
2021/09/27 13:27:49;;;;;;;3.97;2.03;;;24.80;75.00;;;;;;5071015;28;20033;-66